createdAt,value
2022-10-05T00:01:35.383Z,101204.31
2022-10-05T00:04:39.216Z,101214.81
2022-10-05T00:07:48.192Z,101204.78
2022-10-05T00:10:55.570Z,101201.97
2022-10-05T00:14:08.150Z,101211.56
2022-10-05T00:17:21.774Z,101197.25
2022-10-05T00:20:32.364Z,101197.31
2022-10-05T00:23:37.740Z,101178.28
2022-10-05T00:26:52.655Z,101177.44
2022-10-05T00:30:19.261Z,101198.69
2022-10-05T00:34:00.214Z,101186.44
2022-10-05T00:37:09.443Z,101189.28
2022-10-05T00:40:38.253Z,101194.84
2022-10-05T00:44:25.605Z,101193.19
2022-10-05T00:47:49.841Z,101185.66
2022-10-05T00:51:32.554Z,101178.69
2022-10-05T00:55:03.202Z,101175.59
2022-10-05T00:58:56.013Z,101168.47
2022-10-05T01:02:13.986Z,101164.84
2022-10-05T01:05:40.330Z,101156.97
2022-10-05T01:08:59.701Z,101153.81
2022-10-05T01:12:11.953Z,101154.13
2022-10-05T01:15:27.470Z,101139.97
2022-10-05T01:18:41.521Z,101144.16
2022-10-05T01:22:02.106Z,101153.81
2022-10-05T01:25:23.093Z,101154.66
2022-10-05T01:28:31.497Z,101141.91
2022-10-05T01:31:42.801Z,101126.78
2022-10-05T01:34:55.162Z,101110.25
2022-10-05T01:38:12.717Z,101120.38
2022-10-05T01:41:30.635Z,101128.84
2022-10-05T01:44:45.239Z,101127.44
2022-10-05T01:47:52.610Z,101142.28
2022-10-05T01:51:06.482Z,101142.06
2022-10-05T01:54:23.963Z,101126.84
2022-10-05T01:57:39.676Z,101138.25
2022-10-05T02:00:53.162Z,101136.84
2022-10-05T02:04:04.902Z,101139.81
2022-10-05T02:07:15.073Z,101147.59
2022-10-05T02:10:25.306Z,101143.66
2022-10-05T02:13:35.013Z,101152.72
2022-10-05T02:16:42.974Z,101158.06
2022-10-05T02:19:51.366Z,101164.38
2022-10-05T02:22:59.478Z,101158.34
2022-10-05T02:26:02.998Z,101152.41
2022-10-05T02:29:11.845Z,101158.75
2022-10-05T02:32:22.890Z,101158.44
2022-10-05T02:35:25.994Z,101151.50
2022-10-05T02:38:38.271Z,101147.88
2022-10-05T02:41:51.496Z,101148.91
2022-10-05T02:45:05.844Z,101146.47
2022-10-05T02:48:16.388Z,101152.59
2022-10-05T02:51:25.554Z,101156.28
2022-10-05T02:54:45.255Z,101152.84
2022-10-05T02:57:59.378Z,101144.38
2022-10-05T03:01:12.778Z,101148.72
2022-10-05T03:04:29.377Z,101149.66
2022-10-05T03:07:40.344Z,101134.16
2022-10-05T03:10:50.650Z,101131.38
2022-10-05T03:14:03.801Z,101131.81
2022-10-05T03:17:14.695Z,101130.22
2022-10-05T03:20:34.614Z,101131.63
2022-10-05T03:23:50.890Z,101124.88
2022-10-05T03:27:02.836Z,101122.75
2022-10-05T03:30:12.499Z,101118.06
2022-10-05T03:33:23.977Z,101121.66
2022-10-05T03:36:35.357Z,101110.00
2022-10-05T03:39:45.003Z,101093.22
2022-10-05T03:43:03.202Z,101097.44
2022-10-05T03:46:14.987Z,101092.25
2022-10-05T03:49:26.075Z,101084.81
2022-10-05T03:52:37.510Z,101073.09
2022-10-05T03:55:47.086Z,101071.88
2022-10-05T03:58:58.185Z,101064.66
2022-10-05T04:02:04.035Z,101054.91
2022-10-05T04:05:17.943Z,101040.81
2022-10-05T04:08:30.412Z,101035.59
2022-10-05T04:11:39.124Z,101039.44
2022-10-05T04:14:47.875Z,101043.13
2022-10-05T04:17:56.927Z,101053.06
2022-10-05T04:21:06.039Z,101045.91
2022-10-05T04:24:18.224Z,101048.34
2022-10-05T04:27:25.944Z,101046.72
2022-10-05T04:30:30.052Z,101049.34
2022-10-05T04:33:34.225Z,101051.88
2022-10-05T04:36:47.222Z,101044.97
2022-10-05T04:40:09.692Z,101046.41
2022-10-05T04:43:18.540Z,101046.47
2022-10-05T04:46:39.315Z,101047.03
2022-10-05T04:50:16.949Z,101048.88
2022-10-05T04:53:40.873Z,101055.97
2022-10-05T04:56:51.488Z,101054.28
2022-10-05T05:00:10.284Z,101055.66
2022-10-05T05:03:35.989Z,101062.09
2022-10-05T05:06:48.176Z,101061.31
2022-10-05T05:10:24.122Z,101059.84
2022-10-05T05:14:08.431Z,101062.72
2022-10-05T05:17:30.464Z,101050.75
2022-10-05T05:20:49.359Z,101057.44
2022-10-05T05:24:05.103Z,101048.25
2022-10-05T05:27:39.889Z,101058.56
2022-10-05T05:30:50.703Z,101059.03
2022-10-05T05:34:07.345Z,101056.31
2022-10-05T05:37:24.528Z,101058.81
2022-10-05T05:40:34.041Z,101050.94
2022-10-05T05:43:53.204Z,101048.34
2022-10-05T05:47:04.863Z,101034.13
2022-10-05T05:50:35.585Z,101031.88
2022-10-05T05:53:49.169Z,101041.28
2022-10-05T05:57:04.408Z,101039.41
2022-10-05T06:00:19.802Z,101056.13
2022-10-05T06:03:37.946Z,101064.66
2022-10-05T06:06:46.957Z,101067.06
2022-10-05T06:09:58.323Z,101059.63
2022-10-05T06:13:18.776Z,101060.47
2022-10-05T06:16:26.760Z,101058.13
2022-10-05T06:19:34.551Z,101055.34
2022-10-05T06:22:43.664Z,101077.34
2022-10-05T06:26:10.408Z,101064.97
2022-10-05T06:29:20.453Z,101069.97
2022-10-05T06:32:30.663Z,101079.09
2022-10-05T06:35:54.115Z,101091.41
2022-10-05T06:39:29.953Z,101092.03
2022-10-05T06:42:52.310Z,101092.03
2022-10-05T06:46:23.831Z,101100.75
2022-10-05T06:49:45.597Z,101113.81
2022-10-05T06:53:31.576Z,101111.56
2022-10-05T06:56:44.727Z,101129.28
2022-10-05T07:00:19.498Z,101150.38
2022-10-05T07:03:41.692Z,101151.81
2022-10-05T07:06:54.352Z,101140.78
2022-10-05T07:10:18.762Z,101147.19
2022-10-05T07:13:44.057Z,101160.53
2022-10-05T07:17:09.298Z,101176.94
2022-10-05T07:20:20.027Z,101174.84
2022-10-05T07:23:37.997Z,101176.84
2022-10-05T07:26:47.281Z,101194.53
2022-10-05T07:29:59.493Z,101190.56
2022-10-05T07:33:14.591Z,101195.34
2022-10-05T07:36:42.607Z,101207.25
2022-10-05T07:40:00.438Z,101219.91
2022-10-05T07:43:22.769Z,101219.69
2022-10-05T07:46:30.708Z,101224.19
2022-10-05T07:49:43.858Z,101213.28
2022-10-05T07:52:56.472Z,101228.22
2022-10-05T07:56:04.598Z,101246.06
2022-10-05T07:59:17.355Z,101262.09
2022-10-05T08:02:28.205Z,101238.53
2022-10-05T08:05:33.865Z,101243.97
2022-10-05T08:08:49.165Z,101252.47
2022-10-05T08:12:00.512Z,101260.19
2022-10-05T08:15:12.977Z,101267.50
2022-10-05T08:18:22.851Z,101248.66
2022-10-05T08:21:31.883Z,101232.38
2022-10-05T08:24:44.644Z,101222.78
2022-10-05T08:27:53.200Z,101229.00
2022-10-05T08:31:04.382Z,101235.44
2022-10-05T08:34:27.464Z,101240.25
2022-10-05T08:37:35.491Z,101230.03
2022-10-05T08:41:25.211Z,101223.41
2022-10-05T08:45:15.745Z,101226.16
2022-10-05T08:49:14.021Z,101226.88
2022-10-05T08:52:29.864Z,101214.63
2022-10-05T08:55:44.660Z,101218.44
2022-10-05T08:59:11.703Z,101228.91
2022-10-05T09:02:28.171Z,101219.91
2022-10-05T09:06:14.531Z,101216.31
2022-10-05T09:10:12.632Z,101218.22
2022-10-05T09:13:40.678Z,101217.94
2022-10-05T09:17:20.994Z,101224.00
2022-10-05T09:20:32.216Z,101220.44
2022-10-05T09:23:42.929Z,101222.88
2022-10-05T09:27:00.433Z,101220.00
2022-10-05T09:30:26.949Z,101224.00
2022-10-05T09:34:19.084Z,101220.34
2022-10-05T09:37:46.323Z,101212.25
2022-10-05T09:41:35.142Z,101210.41
2022-10-05T09:45:36.161Z,101207.66
2022-10-05T09:49:10.938Z,101202.53
2022-10-05T09:52:37.686Z,101211.84
2022-10-05T10:00:10.380Z,101221.97
2022-10-05T10:04:17.165Z,101215.69
2022-10-05T10:08:05.702Z,101211.84
2022-10-05T10:11:24.875Z,101214.41
2022-10-05T10:15:29.269Z,101212.28
2022-10-05T10:18:55.646Z,101216.34
2022-10-05T10:22:33.958Z,101201.25
2022-10-05T10:26:06.523Z,101211.06
2022-10-05T10:29:34.755Z,101200.38
2022-10-05T10:33:18.926Z,101211.13
2022-10-05T10:36:38.286Z,101215.34
2022-10-05T10:40:04.839Z,101220.47
2022-10-05T10:43:35.139Z,101223.84
2022-10-05T10:46:51.017Z,101218.34
2022-10-05T10:50:26.228Z,101217.41
2022-10-05T10:53:42.458Z,101217.69
2022-10-05T10:56:55.428Z,101225.88
2022-10-05T11:00:35.020Z,101225.72
2022-10-05T11:04:24.368Z,101222.44
2022-10-05T11:07:55.010Z,101220.75
2022-10-05T11:11:22.115Z,101214.78
2022-10-05T11:14:51.580Z,101209.38
2022-10-05T11:18:10.266Z,101207.91
2022-10-05T11:21:30.370Z,101203.81
2022-10-05T11:24:59.702Z,101199.91
2022-10-05T11:28:28.419Z,101197.88
2022-10-05T11:32:02.359Z,101200.22
2022-10-05T11:35:40.012Z,101200.75
2022-10-05T11:39:25.568Z,101186.84
2022-10-05T11:42:57.371Z,101179.91
2022-10-05T11:46:11.743Z,101185.09
2022-10-05T11:49:29.340Z,101191.41
2022-10-05T11:52:39.214Z,101186.22
2022-10-05T11:55:46.643Z,101189.03
2022-10-05T11:58:57.491Z,101181.09
2022-10-05T12:03:10.802Z,101184.50
2022-10-05T12:07:03.510Z,101179.38
2022-10-05T12:10:24.783Z,101178.88
2022-10-05T12:13:41.748Z,101167.97
2022-10-05T12:16:52.889Z,101163.16
2022-10-05T12:19:59.898Z,101158.28
2022-10-05T12:23:11.541Z,101169.59
2022-10-05T12:26:17.822Z,101159.88
2022-10-05T12:29:28.391Z,101156.78
2022-10-05T12:32:37.237Z,101153.19
2022-10-05T12:35:49.023Z,101141.09
2022-10-05T12:38:59.401Z,101144.59
2022-10-05T12:42:17.144Z,101139.97
2022-10-05T12:45:36.509Z,101133.91
2022-10-05T12:49:28.588Z,101136.88
2022-10-05T12:52:50.758Z,101139.38
2022-10-05T12:56:02.813Z,101132.63
2022-10-05T12:59:17.581Z,101135.22
2022-10-05T13:02:36.790Z,101136.31
2022-10-05T13:05:49.768Z,101125.72
2022-10-05T13:09:00.163Z,101133.66
2022-10-05T13:12:10.084Z,101126.19
2022-10-05T13:15:21.462Z,101131.88
2022-10-05T13:18:35.928Z,101134.06
2022-10-05T13:22:02.775Z,101133.31
2022-10-05T13:25:21.697Z,101124.38
2022-10-05T13:28:32.455Z,101121.38
2022-10-05T13:31:42.259Z,101120.31
2022-10-05T13:34:56.012Z,101129.50
2022-10-05T13:38:14.636Z,101119.25
2022-10-05T13:41:30.712Z,101118.28
2022-10-05T13:44:43.820Z,101116.16
2022-10-05T13:48:06.744Z,101113.31
2022-10-05T13:51:20.324Z,101103.59
2022-10-05T13:54:33.710Z,101103.91
2022-10-05T13:57:49.642Z,101103.50
2022-10-05T14:00:56.369Z,101111.63
2022-10-05T14:04:19.074Z,101104.78
2022-10-05T14:07:32.229Z,101106.19
2022-10-05T14:10:41.984Z,101106.31
2022-10-05T14:13:48.589Z,101098.53
2022-10-05T14:16:54.431Z,101094.44
2022-10-05T14:20:03.379Z,101098.69
2022-10-05T14:23:18.542Z,101092.72
2022-10-05T14:26:36.820Z,101099.72
2022-10-05T14:29:40.146Z,101096.06
2022-10-05T14:32:51.596Z,101090.88
2022-10-05T14:35:57.499Z,101095.03
2022-10-05T14:39:05.022Z,101083.59
2022-10-05T14:42:18.076Z,101074.00
2022-10-05T14:45:23.599Z,101076.94
2022-10-05T14:48:28.849Z,101063.00
2022-10-05T14:51:33.582Z,101056.25
2022-10-05T14:54:52.327Z,101049.81
2022-10-05T14:58:23.851Z,101054.59
2022-10-05T15:01:34.170Z,101047.56
2022-10-05T15:04:43.712Z,101046.63
2022-10-05T15:07:50.271Z,101047.78
2022-10-05T15:11:01.814Z,101048.38
2022-10-05T15:14:15.921Z,101048.56
2022-10-05T15:17:28.421Z,101050.94
2022-10-05T15:20:43.726Z,101047.31
2022-10-05T15:23:53.167Z,101051.38
2022-10-05T15:27:00.305Z,101047.25
2022-10-05T15:30:11.142Z,101040.91
2022-10-05T15:33:22.490Z,101040.53
2022-10-05T15:36:35.628Z,101044.88
2022-10-05T15:39:48.349Z,101042.28
2022-10-05T15:42:57.075Z,101036.81
2022-10-05T15:46:08.648Z,101043.06
2022-10-05T15:49:25.105Z,101034.66
2022-10-05T15:52:35.375Z,101031.50
2022-10-05T15:55:44.264Z,101038.50
2022-10-05T15:58:55.525Z,101037.69
2022-10-05T16:02:02.115Z,101035.84
2022-10-05T16:05:41.550Z,101034.19
2022-10-05T16:09:01.513Z,101037.44
2022-10-05T16:12:19.907Z,101036.09
2022-10-05T16:15:33.532Z,101034.59
2022-10-05T16:18:54.917Z,101025.69
2022-10-05T16:22:08.197Z,101025.47
2022-10-05T16:25:23.406Z,101014.31
2022-10-05T16:28:39.261Z,101003.28
2022-10-05T16:31:54.009Z,101003.19
2022-10-05T16:35:14.778Z,101009.63
2022-10-05T16:38:30.012Z,100997.72
2022-10-05T16:41:42.753Z,100992.78
2022-10-05T16:44:55.438Z,100978.94
2022-10-05T16:48:07.469Z,100968.44
2022-10-05T16:51:28.386Z,100974.91
2022-10-05T16:54:37.399Z,100967.44
2022-10-05T16:57:46.437Z,100965.06
2022-10-05T17:01:08.903Z,100965.88
2022-10-05T17:04:28.529Z,100957.00
2022-10-05T17:07:53.057Z,100957.63
2022-10-05T17:11:07.414Z,100955.66
2022-10-05T17:14:28.005Z,100955.91
2022-10-05T17:18:00.774Z,100948.50
2022-10-05T17:21:12.855Z,100942.03
2022-10-05T17:24:34.316Z,100938.25
2022-10-05T17:27:53.408Z,100940.06
2022-10-05T17:31:16.398Z,100943.81
2022-10-05T17:34:28.919Z,100939.88
2022-10-05T17:37:40.111Z,100938.97
2022-10-05T17:41:11.373Z,100922.91
2022-10-05T17:44:26.291Z,100928.88
2022-10-05T17:47:56.602Z,100933.63
2022-10-05T17:51:17.559Z,100935.34
2022-10-05T17:54:41.936Z,100920.06
2022-10-05T17:57:44.951Z,100930.97
2022-10-05T18:01:30.902Z,100912.91
2022-10-05T18:05:18.268Z,100902.22
2022-10-05T18:17:56.629Z,100894.41
2022-10-05T18:21:39.294Z,100884.66
2022-10-05T18:25:03.563Z,100888.41
2022-10-05T18:28:19.672Z,100880.09
2022-10-05T18:31:34.262Z,100878.31
2022-10-05T18:34:44.770Z,100888.06
2022-10-05T18:38:01.998Z,100889.13
2022-10-05T18:41:13.204Z,100881.31
2022-10-05T18:44:35.706Z,100867.88
2022-10-05T18:47:48.248Z,100865.53
2022-10-05T18:51:00.347Z,100861.81
2022-10-05T18:54:17.724Z,100859.81
2022-10-05T18:58:16.011Z,100870.28
2022-10-05T19:01:47.657Z,100844.59
2022-10-05T19:05:29.176Z,100860.13
2022-10-05T19:08:42.377Z,100862.16
2022-10-05T19:11:53.445Z,100859.44
2022-10-05T19:15:06.600Z,100849.91
2022-10-05T19:18:26.600Z,100838.38
2022-10-05T19:21:40.367Z,100850.72
2022-10-05T19:24:57.202Z,100855.44
2022-10-05T19:28:12.461Z,100862.69
2022-10-05T19:31:31.011Z,100899.91
2022-10-05T19:34:50.822Z,100910.75
2022-10-05T19:38:15.509Z,100917.09
2022-10-05T19:41:22.731Z,100924.13
2022-10-05T19:44:46.977Z,100920.41
2022-10-05T19:49:00.832Z,100919.38
2022-10-05T19:52:14.431Z,100919.34
2022-10-05T19:55:27.235Z,100927.69
2022-10-05T19:58:34.119Z,100915.13
2022-10-05T20:01:40.411Z,100930.41
2022-10-05T20:04:57.935Z,100929.22
2022-10-05T20:08:06.017Z,100927.34
2022-10-05T20:12:12.500Z,100926.88
2022-10-05T20:15:40.305Z,100919.13
2022-10-05T20:23:30.064Z,100916.41
2022-10-05T20:26:59.588Z,100934.25
2022-10-05T20:30:25.642Z,100932.06
2022-10-05T20:33:46.407Z,100945.59
2022-10-05T20:36:57.357Z,100961.09
2022-10-05T20:40:37.813Z,100958.38
2022-10-05T20:43:45.972Z,100953.81
2022-10-05T20:47:18.094Z,100969.38
2022-10-05T20:50:32.861Z,100974.81
2022-10-05T20:53:36.107Z,100994.81
2022-10-05T20:56:39.156Z,100999.59
2022-10-05T20:59:43.453Z,101000.72
2022-10-05T21:02:46.789Z,101016.31
2022-10-05T21:05:49.895Z,101024.28
2022-10-05T21:08:54.168Z,101018.66
2022-10-05T21:11:57.152Z,101014.56
2022-10-05T21:15:04.616Z,101013.38
2022-10-05T21:18:07.636Z,101017.06
2022-10-05T21:21:11.025Z,101019.50
2022-10-05T21:24:15.704Z,101025.84
2022-10-05T21:27:18.651Z,101036.16
2022-10-05T21:30:23.006Z,101041.25
2022-10-05T21:33:26.579Z,101050.72
2022-10-05T21:36:30.084Z,101052.13
2022-10-05T21:39:35.098Z,101062.69
2022-10-05T21:42:38.439Z,101078.25
2022-10-05T21:45:43.761Z,101074.06
2022-10-05T21:48:47.341Z,101080.75
2022-10-05T21:51:50.285Z,101094.03
2022-10-05T21:54:57.762Z,101093.47
2022-10-05T21:58:16.639Z,101095.28
2022-10-05T22:01:37.103Z,101086.44
2022-10-05T22:04:46.628Z,101082.47
2022-10-05T22:07:58.166Z,101097.31
2022-10-05T22:11:14.474Z,101097.50
2022-10-05T22:14:57.799Z,101100.91
2022-10-05T22:18:14.000Z,101093.81
2022-10-05T22:21:27.907Z,101090.41
2022-10-05T22:24:36.969Z,101100.91
2022-10-05T22:27:57.565Z,101093.91
2022-10-05T22:31:15.813Z,101091.22
2022-10-05T22:34:32.112Z,101101.97
2022-10-05T22:37:59.392Z,101097.91
2022-10-05T22:41:38.631Z,101106.34
2022-10-05T22:44:46.124Z,101095.25
2022-10-05T22:48:10.508Z,101089.91
2022-10-05T22:51:19.468Z,101088.00
2022-10-05T22:54:26.332Z,101089.91
2022-10-05T22:57:39.143Z,101081.06
2022-10-05T23:00:57.433Z,101081.19
2022-10-05T23:04:01.184Z,101076.06
2022-10-05T23:07:06.459Z,101066.91
2022-10-05T23:10:12.888Z,101073.22
2022-10-05T23:13:16.368Z,101080.25
2022-10-05T23:16:22.788Z,101078.34
2022-10-05T23:19:25.718Z,101080.03
2022-10-05T23:22:30.035Z,101067.06
2022-10-05T23:25:32.949Z,101066.59
2022-10-05T23:28:35.982Z,101066.72
2022-10-05T23:31:38.966Z,101066.16
2022-10-05T23:34:41.882Z,101070.59
2022-10-05T23:37:46.401Z,101059.97
2022-10-05T23:40:49.390Z,101060.56
2022-10-05T23:43:54.643Z,101062.81
2022-10-05T23:46:57.598Z,101063.91
2022-10-05T23:50:00.582Z,101059.63
2022-10-05T23:53:05.172Z,101056.75
2022-10-05T23:56:30.226Z,101042.97
2022-10-05T23:59:55.846Z,101029.88
